^^
Datos históricos de la estación: Murcia-Puente Tocinos
Diario Informe para Abril 6, 2019 Unidades:  Ambas    Ingés   Métrico
Diario Semanal Mensual Anual
  Máxima: Mínima: Promedio:
Temperatura: 101.1 °F /  38.4 °C 76.6 °F /  24.8 °C 85.8 °F /  29.9 °C
Punto de rocio: 71.6 °F /  22 °C 57.7 °F /  14.3 °C 68 °F /  20 °C
Humedad: 81.2% 24.2% 59%
Velocidad viento: 14.5mph /  23.3km/h - 5.1mph /  8.2km/h
Racha viento: 32.2mph /  51.8km/h - -
Viento- - SSE
Presión: 29.9 in /  1014.1 hPa 29.8 in /  1008.0 hPa -
Precipitación: 0 in /  0.0 mm    
 
 
Tabla de datos para Abril 6, 2019
Hora Temperatura Punto de rocio Presión Viento Velocidad viento Racha viento Humedad Intensidad lluvia(por hora) Nubes
00:04 80.1 °F /  26.7 °C 70.7 °F /  21.5 °C 29.9in /  1014.1hPa ESE 4mph /  6.4km/h 8.1mph /  13km/h 73% 0in /  0.0mm
00:09 80.1 °F /  26.7 °C 70.5 °F /  21.4 °C 29.9in /  1014.0hPa ESE 3.9mph /  6.3km/h 8mph /  12.9km/h 73% 0in /  0.0mm
00:14 80.1 °F /  26.7 °C 70.2 °F /  21.2 °C 29.9in /  1014.0hPa ESE 3.6mph /  5.8km/h 8.1mph /  13km/h 72.4% 0in /  0.0mm
00:19 79.9 °F /  26.6 °C 70 °F /  21.1 °C 29.9in /  1014.0hPa SE 3.6mph /  5.8km/h 8mph /  12.9km/h 72% 0in /  0.0mm
00:24 79.9 °F /  26.6 °C 70.2 °F /  21.2 °C 29.9in /  1014.0hPa ESE 3.6mph /  5.8km/h 6mph /  9.7km/h 72.3% 0in /  0.0mm
00:29 79.9 °F /  26.6 °C 70 °F /  21.1 °C 29.9in /  1014.0hPa Sur 3.5mph /  5.6km/h 6mph /  9.7km/h 72% 0in /  0.0mm
00:34 80.1 °F /  26.7 °C 70.2 °F /  21.2 °C 29.9in /  1014.0hPa SO 2.9mph /  4.7km/h 6.9mph /  11.1km/h 72% 0in /  0.0mm
00:39 79.9 °F /  26.6 °C 70.2 °F /  21.2 °C 29.9in /  1014.0hPa NNO 3mph /  4.9km/h 9.2mph /  14.8km/h 72.2% 0in /  0.0mm
00:44 79.5 °F /  26.4 °C 70.2 °F /  21.2 °C 29.9in /  1014.0hPa North 3.6mph /  5.8km/h 9mph /  14.5km/h 73% 0in /  0.0mm
00:49 79.5 °F /  26.4 °C 70.3 °F /  21.3 °C 29.9in /  1014.0hPa NO 3.5mph /  5.6km/h 6mph /  9.7km/h 73.5% 0in /  0.0mm
00:54 79.3 °F /  26.3 °C 70.3 °F /  21.3 °C 29.9in /  1013.8hPa NNO 3.1mph /  5km/h 6mph /  9.7km/h 74% 0in /  0.0mm
00:59 79.3 °F /  26.3 °C 70.3 °F /  21.3 °C 29.9in /  1013.8hPa NO 3mph /  4.9km/h 5mph /  8km/h 74% 0in /  0.0mm
01:04 79.3 °F /  26.3 °C 70.3 °F /  21.3 °C 29.9in /  1013.8hPa NNO 2.9mph /  4.7km/h 5.9mph /  9.5km/h 74% 0in /  0.0mm
01:09 79.3 °F /  26.3 °C 70.5 °F /  21.4 °C 29.9in /  1013.6hPa NO 2.9mph /  4.7km/h 6mph /  9.7km/h 74.9% 0in /  0.0mm
01:14 79.2 °F /  26.2 °C 70.5 °F /  21.4 °C 29.9in /  1013.6hPa NO 3.1mph /  5km/h 6mph /  9.7km/h 75.1% 0in /  0.0mm
01:19 79 °F /  26.1 °C 70.9 °F /  21.6 °C 29.9in /  1013.6hPa NNO 3.1mph /  5km/h 7.4mph /  11.9km/h 76% 0in /  0.0mm
01:24 78.6 °F /  25.9 °C 70.9 °F /  21.6 °C 29.9in /  1013.4hPa NO 3.1mph /  5km/h 7.4mph /  11.9km/h 77% 0in /  0.0mm
01:29 78.4 °F /  25.8 °C 70.9 °F /  21.6 °C 29.9in /  1013.4hPa NO 3.3mph /  5.3km/h 7mph /  11.3km/h 77.8% 0in /  0.0mm
01:34 78.4 °F /  25.8 °C 71.1 °F /  21.7 °C 29.9in /  1013.4hPa NO 4.3mph /  6.9km/h 8.1mph /  13km/h 78% 0in /  0.0mm
01:39 78.3 °F /  25.7 °C 71.1 °F /  21.7 °C 29.9in /  1013.3hPa NO 4.2mph /  6.8km/h 8mph /  12.9km/h 78.6% 0in /  0.0mm
01:44 78.3 °F /  25.7 °C 71.2 °F /  21.8 °C 29.9in /  1013.3hPa NO 4mph /  6.5km/h 6.9mph /  11.1km/h 79% 0in /  0.0mm
01:49 78.1 °F /  25.6 °C 71.1 °F /  21.7 °C 29.9in /  1013.3hPa ONO 3.9mph /  6.3km/h 7mph /  11.3km/h 79% 0in /  0.0mm
01:54 78.1 °F /  25.6 °C 71.4 °F /  21.9 °C 29.9in /  1013.1hPa ONO 3.6mph /  5.8km/h 6mph /  9.7km/h 80% 0in /  0.0mm
01:59 77.9 °F /  25.5 °C 71.2 °F /  21.8 °C 29.9in /  1013.1hPa ONO 3.5mph /  5.6km/h 5.8mph /  9.3km/h 80% 0in /  0.0mm
02:04 77.7 °F /  25.4 °C 71.4 °F /  21.9 °C 29.9in /  1013.5hPa Oeste 3.1mph /  5km/h 6mph /  9.7km/h 80.8% 0in /  0.0mm
02:09 77.7 °F /  25.4 °C 71.4 °F /  21.9 °C 29.9in /  1013.5hPa OSO 3.1mph /  5km/h 6.9mph /  11.1km/h 81% 0in /  0.0mm
02:14 77.5 °F /  25.3 °C 71.2 °F /  21.8 °C 29.9in /  1013.5hPa SSO 3.1mph /  5km/h 9.7mph /  15.6km/h 81% 0in /  0.0mm
02:19 77.7 °F /  25.4 °C 71.4 °F /  21.9 °C 29.9in /  1013.8hPa SO 3.2mph /  5.2km/h 10mph /  16.1km/h 81% 0in /  0.0mm
02:24 77.9 °F /  25.5 °C 71.6 °F /  22 °C 29.9in /  1013.8hPa OSO 4mph /  6.4km/h 8mph /  12.9km/h 81% 0in /  0.0mm
02:29 77.9 °F /  25.5 °C 71.6 °F /  22 °C 29.9in /  1013.8hPa SSO 3.8mph /  6.1km/h 5.8mph /  9.3km/h 80.7% 0in /  0.0mm
02:34 78.1 °F /  25.6 °C 71.4 °F /  21.9 °C 29.9in /  1014.1hPa Oeste 2.9mph /  4.7km/h 6.9mph /  11.1km/h 80% 0in /  0.0mm
02:39 78.3 °F /  25.7 °C 71.4 °F /  21.9 °C 29.9in /  1014.1hPa ESE 3mph /  4.8km/h 9.2mph /  14.8km/h 79.6% 0in /  0.0mm
02:44 78.3 °F /  25.7 °C 71.2 °F /  21.8 °C 29.9in /  1014.1hPa Este 3.6mph /  5.8km/h 9mph /  14.5km/h 79% 0in /  0.0mm
02:49 78.3 °F /  25.7 °C 71.2 °F /  21.8 °C 29.9in /  1014.1hPa NE 3.3mph /  5.3km/h 4.6mph /  7.4km/h 79% 0in /  0.0mm
02:54 78.3 °F /  25.7 °C 71.1 °F /  21.7 °C 29.9in /  1013.7hPa NE 2mph /  3.2km/h 5mph /  8km/h 79% 0in /  0.0mm
02:59 78.1 °F /  25.6 °C 71.4 °F /  21.9 °C 29.9in /  1013.6hPa NE 2mph /  3.2km/h 4.6mph /  7.4km/h 79.9% 0in /  0.0mm
03:04 77.9 °F /  25.5 °C 71.2 °F /  21.8 °C 29.9in /  1013.6hPa NE 2mph /  3.2km/h 5mph /  8km/h 80% 0in /  0.0mm
03:09 77.7 °F /  25.4 °C 71.1 °F /  21.7 °C 29.9in /  1013.3hPa ENE 2.1mph /  3.3km/h 5mph /  8km/h 80% 0in /  0.0mm
03:14 77.7 °F /  25.4 °C 71.2 °F /  21.8 °C 29.9in /  1013.3hPa NNE 2.4mph /  3.9km/h 5.2mph /  8.4km/h 80.5% 0in /  0.0mm
03:19 77.5 °F /  25.3 °C 71.2 °F /  21.8 °C 29.9in /  1013.3hPa NNE 2.3mph /  3.7km/h 5mph /  8km/h 81% 0in /  0.0mm
03:24 77.7 °F /  25.4 °C 71.4 °F /  21.9 °C 29.9in /  1013.3hPa ENE 2mph /  3.2km/h 4.7mph /  7.6km/h 81% 0in /  0.0mm
03:29 77.5 °F /  25.3 °C 71.2 °F /  21.8 °C 29.9in /  1013.3hPa NE 2.1mph /  3.3km/h 5mph /  8km/h 81% 0in /  0.0mm
03:34 77.5 °F /  25.3 °C 71.2 °F /  21.8 °C 29.9in /  1013.3hPa ENE 2.4mph /  3.9km/h 5mph /  8km/h 80.9% 0in /  0.0mm
03:39 77.4 °F /  25.2 °C 70.5 °F /  21.4 °C 29.9in /  1013.2hPa ENE 2.5mph /  4km/h 5.2mph /  8.4km/h 79.6% 0in /  0.0mm
03:44 77.4 °F /  25.2 °C 70.7 °F /  21.5 °C 29.9in /  1013.2hPa ENE 2.9mph /  4.7km/h 5.9mph /  9.5km/h 80% 0in /  0.0mm
03:49 77.4 °F /  25.2 °C 70.5 °F /  21.4 °C 29.9in /  1013.2hPa NE 2.7mph /  4.4km/h 6mph /  9.7km/h 79.5% 0in /  0.0mm
03:54 77.4 °F /  25.2 °C 70.3 °F /  21.3 °C 29.9in /  1013.0hPa Este 2mph /  3.2km/h 5mph /  8km/h 79% 0in /  0.0mm
03:59 77.4 °F /  25.2 °C 70 °F /  21.1 °C 29.9in /  1013.0hPa ENE 2.1mph /  3.4km/h 5.2mph /  8.4km/h 78.2% 0in /  0.0mm
04:04 77.4 °F /  25.2 °C 70 °F /  21.1 °C 29.9in /  1013.0hPa NNO 2.4mph /  3.9km/h 5mph /  8km/h 78% 0in /  0.0mm
04:09 77.4 °F /  25.2 °C 70 °F /  21.1 °C 29.9in /  1012.8hPa NNO 2.4mph /  3.9km/h 5mph /  8km/h 78% 0in /  0.0mm
04:14 77.4 °F /  25.2 °C 70.2 °F /  21.2 °C 29.9in /  1012.7hPa NNO 2.4mph /  3.9km/h 5mph /  8km/h 78.5% 0in /  0.0mm
04:19 77.4 °F /  25.2 °C 70.2 °F /  21.2 °C 29.9in /  1012.7hPa NNO 2.3mph /  3.7km/h 4mph /  6.4km/h 78.7% 0in /  0.0mm
04:24 77.4 °F /  25.2 °C 70.7 °F /  21.5 °C 29.9in /  1012.5hPa NNO 1.8mph /  2.9km/h 3.6mph /  5.8km/h 79.9% 0in /  0.0mm
04:29 77.4 °F /  25.2 °C 70.9 °F /  21.6 °C 29.9in /  1012.4hPa NNO 1.9mph /  3km/h 4mph /  6.4km/h 80.5% 0in /  0.0mm
04:34 77.4 °F /  25.2 °C 71.1 °F /  21.7 °C 29.9in /  1012.4hPa NO 2mph /  3.2km/h 4mph /  6.4km/h 81% 0in /  0.0mm
04:39 77.2 °F /  25.1 °C 70.9 °F /  21.6 °C 29.9in /  1012.2hPa ONO 2mph /  3.2km/h 4mph /  6.4km/h 81% 0in /  0.0mm
04:44 77.2 °F /  25.1 °C 70.9 °F /  21.6 °C 29.9in /  1012.2hPa SSO 1.8mph /  2.9km/h 4.6mph /  7.4km/h 81.1% 0in /  0.0mm
04:49 77.2 °F /  25.1 °C 71.1 °F /  21.7 °C 29.9in /  1012.2hPa ESE 1.9mph /  3.1km/h 5.2mph /  8.4km/h 81.2% 0in /  0.0mm
04:54 77.2 °F /  25.1 °C 70.9 °F /  21.6 °C 29.9in /  1012.2hPa ESE 2.4mph /  3.9km/h 5mph /  8km/h 81% 0in /  0.0mm
04:59 77.2 °F /  25.1 °C 70.9 °F /  21.6 °C 29.9in /  1012.2hPa ESE 2.2mph /  3.6km/h 4.6mph /  7.4km/h 81% 0in /  0.0mm
05:04 77 °F /  25 °C 70.5 °F /  21.4 °C 29.9in /  1012.2hPa SE 1.8mph /  2.9km/h 5mph /  8km/h 80.2% 0in /  0.0mm
05:09 76.8 °F /  24.9 °C 70.2 °F /  21.2 °C 29.9in /  1012.2hPa SE 1.9mph /  3km/h 5mph /  8km/h 80% 0in /  0.0mm
05:14 76.8 °F /  24.9 °C 70.2 °F /  21.2 °C 29.9in /  1012.2hPa SE 2mph /  3.2km/h 5mph /  8km/h 80% 0in /  0.0mm
05:19 76.8 °F /  24.9 °C 70 °F /  21.1 °C 29.9in /  1012.3hPa SSE 2.1mph /  3.4km/h 5.2mph /  8.4km/h 79.3% 0in /  0.0mm
05:24 76.8 °F /  24.9 °C 69.8 °F /  21 °C 29.9in /  1012.3hPa SSE 2.9mph /  4.7km/h 5mph /  8km/h 79% 0in /  0.0mm
05:29 77 °F /  25 °C 70.2 °F /  21.2 °C 29.9in /  1012.3hPa SSE 2.6mph /  4.2km/h 4mph /  6.4km/h 79% 0in /  0.0mm
05:34 77.2 °F /  25.1 °C 70.2 °F /  21.2 °C 29.9in /  1012.3hPa SSE 1.4mph /  2.2km/h 4.7mph /  7.6km/h 79% 0in /  0.0mm
05:39 77.2 °F /  25.1 °C 70.2 °F /  21.2 °C 29.9in /  1012.1hPa SO 1.5mph /  2.4km/h 5mph /  8km/h 79% 0in /  0.0mm
05:44 77.4 °F /  25.2 °C 70.3 °F /  21.3 °C 29.9in /  1012.1hPa SO 2mph /  3.2km/h 5mph /  8km/h 79% 0in /  0.0mm
05:49 77.4 °F /  25.2 °C 70.3 °F /  21.3 °C 29.9in /  1012.4hPa SO 2.2mph /  3.5km/h 5.8mph /  9.3km/h 79% 0in /  0.0mm
05:54 77.4 °F /  25.2 °C 70.3 °F /  21.3 °C 29.9in /  1012.4hPa SO 2.9mph /  4.7km/h 6mph /  9.7km/h 79% 0in /  0.0mm
05:59 77.4 °F /  25.2 °C 70.3 °F /  21.3 °C 29.9in /  1012.4hPa SO 2.9mph /  4.7km/h 6mph /  9.7km/h 79% 0in /  0.0mm
06:04 77.4 °F /  25.2 °C 70.3 °F /  21.3 °C 29.9in /  1012.4hPa SSO 3.1mph /  5km/h 5.4mph /  8.7km/h 79% 0in /  0.0mm
06:09 77.4 °F /  25.2 °C 70.2 °F /  21.2 °C 29.9in /  1012.2hPa SO 3.1mph /  5km/h 6.4mph /  10.3km/h 78.7% 0in /  0.0mm
06:14 77.2 °F /  25.1 °C 69.8 °F /  21 °C 29.9in /  1012.2hPa OSO 3.1mph /  5km/h 7mph /  11.3km/h 78% 0in /  0.0mm
06:19 77.2 °F /  25.1 °C 69.8 °F /  21 °C 29.9in /  1012.2hPa SO 3.1mph /  5km/h 7mph /  11.3km/h 78% 0in /  0.0mm
06:24 77.2 °F /  25.1 °C 69.8 °F /  21 °C 29.9in /  1012.1hPa OSO 3.1mph /  5km/h 6.2mph /  10km/h 78% 0in /  0.0mm
06:29 77.2 °F /  25.1 °C 69.8 °F /  21 °C 29.9in /  1012.1hPa OSO 3.1mph /  5km/h 6mph /  9.7km/h 78% 0in /  0.0mm
06:34 77.2 °F /  25.1 °C 69.8 °F /  21 °C 29.9in /  1012.1hPa OSO 3.1mph /  5km/h 5mph /  8km/h 78% 0in /  0.0mm
06:39 77.2 °F /  25.1 °C 69.8 °F /  21 °C 29.9in /  1012.0hPa OSO 2.9mph /  4.7km/h 5.8mph /  9.3km/h 77.9% 0in /  0.0mm
06:44 77 °F /  25 °C 69.6 °F /  20.9 °C 29.9in /  1012.0hPa OSO 2mph /  3.2km/h 6mph /  9.7km/h 77.8% 0in /  0.0mm
06:49 77 °F /  25 °C 69.3 °F /  20.7 °C 29.9in /  1012.0hPa OSO 2mph /  3.2km/h 4mph /  6.4km/h 77% 0in /  0.0mm
06:54 77 °F /  25 °C 69.3 °F /  20.7 °C 29.9in /  1011.8hPa OSO 1.8mph /  2.9km/h 4.7mph /  7.6km/h 77% 0in /  0.0mm
06:59 76.8 °F /  24.9 °C 69.1 °F /  20.6 °C 29.9in /  1011.7hPa OSO 2.1mph /  3.3km/h 5mph /  8km/h 77% 0in /  0.0mm
07:04 76.8 °F /  24.9 °C 69.1 °F /  20.6 °C 29.9in /  1012.1hPa OSO 2.9mph /  4.6km/h 5mph /  8km/h 77% 0in /  0.0mm
07:09 76.8 °F /  24.9 °C 69.1 °F /  20.6 °C 29.9in /  1012.1hPa OSO 2.8mph /  4.5km/h 5mph /  8km/h 77% 0in /  0.0mm
07:14 76.8 °F /  24.9 °C 69.1 °F /  20.6 °C 29.9in /  1012.1hPa OSO 2.4mph /  3.9km/h 6.9mph /  11.1km/h 77% 0in /  0.0mm
07:19 76.8 °F /  24.9 °C 69.1 °F /  20.6 °C 29.9in /  1012.1hPa SO 2.4mph /  3.9km/h 7mph /  11.3km/h 76.9% 0in /  0.0mm
07:24 76.8 °F /  24.9 °C 68.7 °F /  20.4 °C 29.9in /  1011.9hPa OSO 2.4mph /  3.9km/h 6.2mph /  10km/h 76.1% 0in /  0.0mm
07:29 76.6 °F /  24.8 °C 68.5 °F /  20.3 °C 29.9in /  1011.9hPa OSO 2.6mph /  4.2km/h 7.4mph /  11.9km/h 76% 0in /  0.0mm
07:34 76.6 °F /  24.8 °C 68.5 °F /  20.3 °C 29.9in /  1012.1hPa OSO 3.6mph /  5.8km/h 7mph /  11.3km/h 76% 0in /  0.0mm
07:39 76.6 °F /  24.8 °C 68.7 °F /  20.4 °C 29.9in /  1012.1hPa OSO 3.7mph /  5.9km/h 6mph /  9.7km/h 76.5% 0in /  0.0mm
07:44 76.6 °F /  24.8 °C 68.9 °F /  20.5 °C 29.9in /  1012.1hPa OSO 4mph /  6.4km/h 6mph /  9.7km/h 77% 0in /  0.0mm
07:49 76.6 °F /  24.8 °C 68.9 °F /  20.5 °C 29.9in /  1012.3hPa SO 3.8mph /  6.1km/h 5mph /  8km/h 77% 0in /  0.0mm
07:54 76.6 °F /  24.8 °C 68.9 °F /  20.5 °C 29.9in /  1012.3hPa SSO 2.9mph /  4.7km/h 4.3mph /  6.9km/h 77% 0in /  0.0mm
07:59 76.6 °F /  24.8 °C 68.9 °F /  20.5 °C 29.9in /  1012.3hPa SE 2.8mph /  4.5km/h 5mph /  8km/h 77% 0in /  0.0mm
08:04 76.6 °F /  24.8 °C 69.3 °F /  20.7 °C 29.9in /  1012.3hPa ESE 2.4mph /  3.9km/h 5.2mph /  8.4km/h 77.6% 0in /  0.0mm
08:09 76.6 °F /  24.8 °C 69.1 °F /  20.6 °C 29.9in /  1012.2hPa ESE 2.4mph /  3.9km/h 5mph /  8km/h 77.5% 0in /  0.0mm
08:14 76.6 °F /  24.8 °C 69.1 °F /  20.6 °C 29.9in /  1012.2hPa SSE 2.4mph /  3.9km/h 5mph /  8km/h 77.4% 0in /  0.0mm
08:19 76.8 °F /  24.9 °C 69.3 °F /  20.7 °C 29.9in /  1012.3hPa ESE 2.4mph /  3.9km/h 5mph /  8km/h 77.3% 0in /  0.0mm
08:24 77.2 °F /  25.1 °C 69.3 °F /  20.7 °C 29.9in /  1012.3hPa ESE 2.4mph /  3.9km/h 5mph /  8km/h 76.8% 0in /  0.0mm
08:29 77.4 °F /  25.2 °C 69.4 °F /  20.8 °C 29.9in /  1012.3hPa SE 2.3mph /  3.7km/h 5mph /  8km/h 76.6% 0in /  0.0mm
08:34 78.1 °F /  25.6 °C 69.8 °F /  21 °C 29.9in /  1012.4hPa SE 1.8mph /  2.9km/h 3mph /  4.8km/h 76.1% 0in /  0.0mm
08:39 78.4 °F /  25.8 °C 69.8 °F /  21 °C 29.9in /  1012.4hPa SSE 1.5mph /  2.4km/h 3.6mph /  5.8km/h 74.6% 0in /  0.0mm
08:44 78.8 °F /  26 °C 69.8 °F /  21 °C 29.9in /  1012.4hPa Calm   4mph /  6.4km/h 73.8% 0in /  0.0mm
08:49 79.3 °F /  26.3 °C 69.6 °F /  20.9 °C 29.9in /  1012.5hPa Calm   4mph /  6.4km/h 72.4% 0in /  0.0mm
08:54 79.5 °F /  26.4 °C 69.6 °F /  20.9 °C 29.9in /  1012.5hPa Calm   4mph /  6.4km/h 71.8% 0in /  0.0mm
08:59 79.9 °F /  26.6 °C 69.6 °F /  20.9 °C 29.9in /  1012.5hPa NNO 0.4mph /  0.6km/h 5mph /  8km/h 71.4% 0in /  0.0mm
09:04 79.9 °F /  26.6 °C 69.6 °F /  20.9 °C 29.9in /  1012.5hPa NNO 1.8mph /  2.9km/h 5mph /  8km/h 71% 0in /  0.0mm
09:09 79.9 °F /  26.6 °C 69.6 °F /  20.9 °C 29.9in /  1012.2hPa NNO 1.7mph /  2.8km/h 4.3mph /  6.9km/h 71.1% 0in /  0.0mm
09:14 79.9 °F /  26.6 °C 69.6 °F /  20.9 °C 29.9in /  1012.1hPa Oeste 1.4mph /  2.2km/h 5mph /  8km/h 71% 0in /  0.0mm
09:19 80.1 °F /  26.7 °C 69.6 °F /  20.9 °C 29.9in /  1012.4hPa OSO 1.6mph /  2.5km/h 5mph /  8km/h 71% 0in /  0.0mm
09:24 80.1 °F /  26.7 °C 69.8 °F /  21 °C 29.9in /  1012.4hPa Oeste 2.4mph /  3.9km/h 5mph /  8km/h 71% 0in /  0.0mm
09:29 80.1 °F /  26.7 °C 69.8 °F /  21 °C 29.9in /  1012.4hPa SSO 2.5mph /  4km/h 5.8mph /  9.3km/h 70.9% 0in /  0.0mm
09:34 80.2 °F /  26.8 °C 69.6 °F /  20.9 °C 29.9in /  1012.4hPa Sur 2.9mph /  4.7km/h 6mph /  9.7km/h 70% 0in /  0.0mm
09:39 80.8 °F /  27.1 °C 69.6 °F /  20.9 °C 29.9in /  1012.2hPa Sur 2.9mph /  4.7km/h 7.4mph /  11.9km/h 68.8% 0in /  0.0mm
09:44 81 °F /  27.2 °C 69.4 °F /  20.8 °C 29.9in /  1012.1hPa SSE 2.9mph /  4.7km/h 7mph /  11.3km/h 68% 0in /  0.0mm
09:49 81.1 °F /  27.3 °C 69.6 °F /  20.9 °C 29.9in /  1012.1hPa SO 3mph /  4.9km/h 7.4mph /  11.9km/h 67.9% 0in /  0.0mm
09:54 81.1 °F /  27.3 °C 69.6 °F /  20.9 °C 29.9in /  1012.1hPa SO 4mph /  6.4km/h 7mph /  11.3km/h 67.7% 0in /  0.0mm
09:59 81.3 °F /  27.4 °C 69.8 °F /  21 °C 29.9in /  1012.1hPa SSO 3.8mph /  6.1km/h 7mph /  11.3km/h 68% 0in /  0.0mm
10:04 81.9 °F /  27.7 °C 69.8 °F /  21 °C 29.9in /  1012.1hPa SO 3.1mph /  5km/h 6.2mph /  10km/h 67.3% 0in /  0.0mm
10:09 82 °F /  27.8 °C 69.6 °F /  20.9 °C 29.9in /  1012.1hPa Sur 3.1mph /  5km/h 6mph /  9.7km/h 66% 0in /  0.0mm
10:14 82.4 °F /  28 °C 69.8 °F /  21 °C 29.9in /  1012.1hPa SE 3.1mph /  5km/h 5mph /  8km/h 66% 0in /  0.0mm
10:19 82.8 °F /  28.2 °C 69.8 °F /  21 °C 29.9in /  1012.1hPa Oeste 3mph /  4.8km/h 5mph /  8km/h 65.1% 0in /  0.0mm
10:24 82.9 °F /  28.3 °C 69.4 °F /  20.8 °C 29.9in /  1011.9hPa ONO 2.4mph /  3.9km/h 5mph /  8km/h 64% 0in /  0.0mm
10:29 83.1 °F /  28.4 °C 69.3 °F /  20.7 °C 29.9in /  1011.9hPa NO 2.5mph /  4km/h 5.9mph /  9.5km/h 63% 0in /  0.0mm
10:34 83.5 °F /  28.6 °C 69.4 °F /  20.8 °C 29.9in /  1011.9hPa Oeste 2.9mph /  4.7km/h 6.9mph /  11.1km/h 62.9% 0in /  0.0mm
10:39 83.7 °F /  28.7 °C 69.4 °F /  20.8 °C 29.9in /  1011.8hPa NO 2.9mph /  4.7km/h 7mph /  11.3km/h 62.4% 0in /  0.0mm
10:44 84.2 °F /  29 °C 69.4 °F /  20.8 °C 29.9in /  1011.8hPa NNE 3.1mph /  5km/h 6.2mph /  10km/h 61.3% 0in /  0.0mm
10:49 84.7 °F /  29.3 °C 69.3 °F /  20.7 °C 29.9in /  1011.8hPa OSO 3mph /  4.9km/h 6mph /  9.7km/h 60% 0in /  0.0mm
10:54 84.7 °F /  29.3 °C 69.3 °F /  20.7 °C 29.9in /  1011.7hPa Oeste 2.9mph /  4.7km/h 6mph /  9.7km/h 59.9% 0in /  0.0mm
10:59 84.9 °F /  29.4 °C 69.1 °F /  20.6 °C 29.9in /  1011.7hPa NO 2.9mph /  4.7km/h 6.2mph /  10km/h 59% 0in /  0.0mm
11:04 85.1 °F /  29.5 °C 68.9 °F /  20.5 °C 29.9in /  1011.7hPa SO 3.1mph /  5km/h 6.9mph /  11.1km/h 58.2% 0in /  0.0mm
11:09 85.3 °F /  29.6 °C 68.5 °F /  20.3 °C 29.9in /  1011.5hPa Sur 3mph /  4.9km/h 7mph /  11.3km/h 57.3% 0in /  0.0mm
11:14 85.5 °F /  29.7 °C 68.4 °F /  20.2 °C 29.9in /  1011.5hPa Oeste 2.9mph /  4.7km/h 5mph /  8km/h 56.6% 0in /  0.0mm
11:19 86 °F /  30 °C 68.5 °F /  20.3 °C 29.9in /  1011.5hPa SO 2.8mph /  4.5km/h 5mph /  8km/h 56% 0in /  0.0mm
11:24 86.5 °F /  30.3 °C 68.5 °F /  20.3 °C 29.9in /  1011.5hPa SO 2.4mph /  3.9km/h 6.4mph /  10.3km/h 55.1% 0in /  0.0mm
11:29 86.5 °F /  30.3 °C 68.5 °F /  20.3 °C 29.9in /  1011.5hPa SSO 2.6mph /  4.2km/h 7mph /  11.3km/h 55% 0in /  0.0mm
11:34 86.7 °F /  30.4 °C 68.4 °F /  20.2 °C 29.9in /  1011.6hPa Oeste 3.6mph /  5.8km/h 6.9mph /  11.1km/h 54.4% 0in /  0.0mm
11:39 86.7 °F /  30.4 °C 68.2 °F /  20.1 °C 29.9in /  1011.6hPa NO 3.5mph /  5.6km/h 7mph /  11.3km/h 54% 0in /  0.0mm
11:44 87.3 °F /  30.7 °C 68.5 °F /  20.3 °C 29.9in /  1011.6hPa Este 2.9mph /  4.7km/h 5mph /  8km/h 53.7% 0in /  0.0mm
11:49 87.8 °F /  31 °C 68.5 °F /  20.3 °C 29.9in /  1011.6hPa ESE 2.7mph /  4.4km/h 4.7mph /  7.6km/h 52.9% 0in /  0.0mm
11:54 88.2 °F /  31.2 °C 68.7 °F /  20.4 °C 29.9in /  1011.3hPa SSO 2mph /  3.2km/h 5.8mph /  9.3km/h 52.5% 0in /  0.0mm
11:59 88.3 °F /  31.3 °C 68.5 °F /  20.3 °C 29.9in /  1011.2hPa OSO 2.2mph /  3.5km/h 6mph /  9.7km/h 52% 0in /  0.0mm
12:04 89.1 °F /  31.7 °C 68.9 °F /  20.5 °C 29.9in /  1011.2hPa North 2.9mph /  4.7km/h 6mph /  9.7km/h 51.7% 0in /  0.0mm
12:09 89.4 °F /  31.9 °C 68.5 °F /  20.3 °C 29.9in /  1011.1hPa NO 2.9mph /  4.7km/h 5.8mph /  9.3km/h 50.6% 0in /  0.0mm
12:14 89.4 °F /  31.9 °C 68.5 °F /  20.3 °C 29.9in /  1011.1hPa NNO 2.9mph /  4.7km/h 6.9mph /  11.1km/h 50.3% 0in /  0.0mm
12:19 89.6 °F /  32 °C 68.7 °F /  20.4 °C 29.9in /  1011.2hPa North 3mph /  4.8km/h 7mph /  11.3km/h 50.4% 0in /  0.0mm
12:24 90 °F /  32.2 °C 68.9 °F /  20.5 °C 29.9in /  1011.2hPa NNE 3.6mph /  5.8km/h 7.4mph /  11.9km/h 50.1% 0in /  0.0mm
12:29 90 °F /  32.2 °C 68.9 °F /  20.5 °C 29.9in /  1011.2hPa NE 3.7mph /  5.9km/h 7mph /  11.3km/h 50.1% 0in /  0.0mm
12:34 90.1 °F /  32.3 °C 68.9 °F /  20.5 °C 29.9in /  1011.2hPa NE 4mph /  6.4km/h 9.2mph /  14.8km/h 49.9% 0in /  0.0mm
12:39 90.3 °F /  32.4 °C 69.3 °F /  20.7 °C 29.9in /  1011.2hPa NNE 4mph /  6.5km/h 9.2mph /  14.8km/h 49.9% 0in /  0.0mm
12:44 90.9 °F /  32.7 °C 69.3 °F /  20.7 °C 29.9in /  1011.2hPa NNE 4.3mph /  6.9km/h 9.7mph /  15.6km/h 49.2% 0in /  0.0mm
12:49 91.2 °F /  32.9 °C 69.3 °F /  20.7 °C 29.9in /  1011.2hPa NE 4.5mph /  7.2km/h 10.7mph /  17.2km/h 48.9% 0in /  0.0mm
12:54 91.6 °F /  33.1 °C 69.1 °F /  20.6 °C 29.9in /  1010.9hPa NNE 5.4mph /  8.7km/h 11.2mph /  18km/h 48% 0in /  0.0mm
12:59 91.8 °F /  33.2 °C 68.7 °F /  20.4 °C 29.9in /  1010.8hPa NNE 5.7mph /  9.2km/h 11mph /  17.7km/h 47.1% 0in /  0.0mm
13:04 92.1 °F /  33.4 °C 68.7 °F /  20.4 °C 29.9in /  1010.8hPa NE 6.9mph /  11.1km/h 11mph /  17.7km/h 46.7% 0in /  0.0mm
13:09 92.5 °F /  33.6 °C 68.9 °F /  20.5 °C 29.9in /  1010.8hPa NE 6.8mph /  10.9km/h 11.5mph /  18.5km/h 46.1% 0in /  0.0mm
13:14 92.7 °F /  33.7 °C 68.7 °F /  20.4 °C 29.9in /  1010.8hPa NNE 6.2mph /  10km/h 12.7mph /  20.4km/h 45.8% 0in /  0.0mm
13:19 93 °F /  33.9 °C 68.5 °F /  20.3 °C 29.9in /  1010.8hPa NNE 6.2mph /  10km/h 13mph /  20.9km/h 45% 0in /  0.0mm
13:24 93.6 °F /  34.2 °C 68.7 °F /  20.4 °C 29.8in /  1010.7hPa NE 6.4mph /  10.3km/h 13mph /  20.9km/h 44.5% 0in /  0.0mm
13:29 94.3 °F /  34.6 °C 68.9 °F /  20.5 °C 29.8in /  1010.7hPa NE 6.6mph /  10.6km/h 15mph /  24.1km/h 44% 0in /  0.0mm
13:34 94.5 °F /  34.7 °C 69.3 °F /  20.7 °C 29.8in /  1010.7hPa NE 7.4mph /  11.9km/h 15mph /  24.1km/h 44% 0in /  0.0mm
13:39 94.6 °F /  34.8 °C 69.3 °F /  20.7 °C 29.8in /  1010.7hPa NE 7.3mph /  11.8km/h 14mph /  22.5km/h 43.8% 0in /  0.0mm
13:44 94.8 °F /  34.9 °C 69.3 °F /  20.7 °C 29.8in /  1010.7hPa NE 6.9mph /  11.1km/h 19.7mph /  31.7km/h 43.6% 0in /  0.0mm
13:49 95.2 °F /  35.1 °C 70 °F /  21.1 °C 29.8in /  1010.7hPa NE 7.5mph /  12km/h 20mph /  32.2km/h 44.2% 0in /  0.0mm
13:54 95.5 °F /  35.3 °C 70.5 °F /  21.4 °C 29.8in /  1010.5hPa NE 10mph /  16.1km/h 15mph /  24.1km/h 44.4% 0in /  0.0mm
13:59 95.9 °F /  35.5 °C 70.2 °F /  21.2 °C 29.8in /  1010.5hPa NE 9.6mph /  15.4km/h 16.1mph /  25.9km/h 43.5% 0in /  0.0mm
14:04 96.1 °F /  35.6 °C 70.7 °F /  21.5 °C 29.8in /  1010.6hPa NE 8.1mph /  13km/h 16mph /  25.7km/h 44.2% 0in /  0.0mm
14:09 95.7 °F /  35.4 °C 70 °F /  21.1 °C 29.8in /  1010.6hPa NE 8.2mph /  13.2km/h 15mph /  24.1km/h 43.6% 0in /  0.0mm
14:14 95.9 °F /  35.5 °C 68.9 °F /  20.5 °C 29.8in /  1010.6hPa NNE 8.7mph /  14km/h 13mph /  20.9km/h 41.9% 0in /  0.0mm
14:19 96.3 °F /  35.7 °C 68.7 °F /  20.4 °C 29.8in /  1010.6hPa ENE 8.3mph /  13.4km/h 16.3mph /  26.2km/h 41.1% 0in /  0.0mm
14:24 96.3 °F /  35.7 °C 70.5 °F /  21.4 °C 29.8in /  1010.3hPa Este 6.4mph /  10.3km/h 16mph /  25.7km/h 43.5% 0in /  0.0mm
14:29 95.7 °F /  35.4 °C 67.5 °F /  19.7 °C 29.8in /  1010.2hPa ESE 6.4mph /  10.3km/h 12mph /  19.3km/h 40% 0in /  0.0mm
14:34 96.6 °F /  35.9 °C 66.6 °F /  19.2 °C 29.8in /  1010.2hPa SE 6.4mph /  10.3km/h 12mph /  19.3km/h 37.7% 0in /  0.0mm
14:39 97.2 °F /  36.2 °C 68.2 °F /  20.1 °C 29.8in /  1010.0hPa SE 6.2mph /  10km/h 11.5mph /  18.5km/h 39% 0in /  0.0mm
14:44 97 °F /  36.1 °C 68 °F /  20 °C 29.8in /  1009.9hPa ESE 5.4mph /  8.7km/h 14mph /  22.5km/h 39.1% 0in /  0.0mm
14:49 96.4 °F /  35.8 °C 67.5 °F /  19.7 °C 29.8in /  1009.9hPa ESE 5.8mph /  9.4km/h 14mph /  22.5km/h 39% 0in /  0.0mm
14:54 97.2 °F /  36.2 °C 68 °F /  20 °C 29.8in /  1009.7hPa SE 8.1mph /  13km/h 12.7mph /  20.4km/h 39% 0in /  0.0mm
14:59 97.5 °F /  36.4 °C 67.6 °F /  19.8 °C 29.8in /  1009.7hPa ESE 8mph /  12.8km/h 14mph /  22.5km/h 38% 0in /  0.0mm
15:04 97.9 °F /  36.6 °C 67.5 °F /  19.7 °C 29.8in /  1009.7hPa ESE 7.4mph /  11.9km/h 14mph /  22.5km/h 37.3% 0in /  0.0mm
15:09 98.1 °F /  36.7 °C 67.3 °F /  19.6 °C 29.8in /  1009.5hPa ESE 7.2mph /  11.6km/h 13mph /  20.9km/h 36.9% 0in /  0.0mm
15:14 98.8 °F /  37.1 °C 66.9 °F /  19.4 °C 29.8in /  1009.5hPa ESE 6.4mph /  10.3km/h 10mph /  16.1km/h 35.9% 0in /  0.0mm
15:19 99.5 °F /  37.5 °C 65.3 °F /  18.5 °C 29.8in /  1009.5hPa SE 6.2mph /  10km/h 11.5mph /  18.5km/h 33% 0in /  0.0mm
15:24 100 °F /  37.8 °C 63.3 °F /  17.4 °C 29.8in /  1009.5hPa SSE 5.2mph /  8.4km/h 23.5mph /  37.8km/h 30.4% 0in /  0.0mm
15:29 100.8 °F /  38.2 °C 58.6 °F /  14.8 °C 29.8in /  1009.5hPa Sur 6mph /  9.7km/h 23.5mph /  37.8km/h 25.2% 0in /  0.0mm
15:34 101.1 °F /  38.4 °C 57.9 °F /  14.4 °C 29.8in /  1009.7hPa Sur 10.2mph /  16.4km/h 23mph /  37km/h 24.2% 0in /  0.0mm
15:39 101.1 °F /  38.4 °C 58.6 °F /  14.8 °C 29.8in /  1009.7hPa SSO 10.9mph /  17.5km/h 25.3mph /  40.7km/h 24.8% 0in /  0.0mm
15:44 100.8 °F /  38.2 °C 58.6 °F /  14.8 °C 29.8in /  1009.7hPa Sur 13.7mph /  22km/h 25mph /  40.2km/h 25.1% 0in /  0.0mm
15:49 100.6 °F /  38.1 °C 59.4 °F /  15.2 °C 29.8in /  1009.7hPa Sur 13.4mph /  21.5km/h 22mph /  35.4km/h 25.9% 0in /  0.0mm
15:54 100 °F /  37.8 °C 60.1 °F /  15.6 °C 29.8in /  1009.6hPa Sur 11.8mph /  19km/h 18mph /  29km/h 27% 0in /  0.0mm
15:59 99.9 °F /  37.7 °C 60.1 °F /  15.6 °C 29.8in /  1009.6hPa SSE 11.1mph /  17.8km/h 14mph /  22.5km/h 27.3% 0in /  0.0mm
16:04 99.5 °F /  37.5 °C 64 °F /  17.8 °C 29.8in /  1009.6hPa ESE 8.5mph /  13.7km/h 14mph /  22.5km/h 31.5% 0in /  0.0mm
16:09 99 °F /  37.2 °C 65.1 °F /  18.4 °C 29.8in /  1009.4hPa ESE 8.2mph /  13.2km/h 11.5mph /  18.5km/h 33.3% 0in /  0.0mm
16:14 99 °F /  37.2 °C 64.8 °F /  18.2 °C 29.8in /  1009.4hPa ESE 7.4mph /  11.9km/h 12mph /  19.3km/h 32.9% 0in /  0.0mm
16:19 98.8 °F /  37.1 °C 64.4 °F /  18 °C 29.8in /  1009.4hPa Este 7.3mph /  11.7km/h 12mph /  19.3km/h 32.7% 0in /  0.0mm
16:24 98.4 °F /  36.9 °C 64.6 °F /  18.1 °C 29.8in /  1009.3hPa Este 6.9mph /  11.1km/h 12mph /  19.3km/h 33.3% 0in /  0.0mm
16:29 98.6 °F /  37 °C 63.7 °F /  17.6 °C 29.8in /  1009.3hPa ESE 6.5mph /  10.4km/h 10.4mph /  16.7km/h 32% 0in /  0.0mm
16:34 98.8 °F /  37.1 °C 63.3 °F /  17.4 °C 29.8in /  1009.4hPa Este 5.4mph /  8.7km/h 10mph /  16.1km/h 31.5% 0in /  0.0mm
16:39 99.1 °F /  37.3 °C 63.1 °F /  17.3 °C 29.8in /  1009.4hPa ESE 4.8mph /  7.7km/h 8.1mph /  13km/h 30.9% 0in /  0.0mm
16:44 99.5 °F /  37.5 °C 61.2 °F /  16.2 °C 29.8in /  1009.4hPa Sur 3.6mph /  5.8km/h 13.8mph /  22.2km/h 28.5% 0in /  0.0mm
16:49 99.9 °F /  37.7 °C 60.4 °F /  15.8 °C 29.8in /  1009.6hPa SSO 4.9mph /  7.9km/h 15mph /  24.1km/h 27.6% 0in /  0.0mm
16:54 99.9 °F /  37.7 °C 60.8 °F /  16 °C 29.8in /  1009.6hPa SSO 7.4mph /  11.9km/h 15mph /  24.1km/h 27.9% 0in /  0.0mm
16:59 100 °F /  37.8 °C 60.6 °F /  15.9 °C 29.8in /  1009.6hPa OSO 7.9mph /  12.7km/h 27.3mph /  43.9km/h 27.5% 0in /  0.0mm
17:04 100.2 °F /  37.9 °C 60.1 °F /  15.6 °C 29.9in /  1011.4hPa Oeste 8.7mph /  14km/h 32.2mph /  51.8km/h 26.9% 0in /  0.0mm
17:09 99.5 °F /  37.5 °C 57.9 °F /  14.4 °C 29.9in /  1011.4hPa OSO 10.6mph /  17km/h 32mph /  51.5km/h 25.4% 0in /  0.0mm
17:14 99 °F /  37.2 °C 59.2 °F /  15.1 °C 29.9in /  1011.4hPa SO 14.5mph /  23.3km/h 28mph /  45.1km/h 27.1% 0in /  0.0mm
17:19 98.2 °F /  36.8 °C 58.5 °F /  14.7 °C 29.9in /  1011.4hPa OSO 13.4mph /  21.5km/h 22mph /  35.4km/h 26.8% 0in /  0.0mm
17:24 97.7 °F /  36.5 °C 57.7 °F /  14.3 °C 29.9in /  1010.8hPa SO 10.7mph /  17.2km/h 16mph /  25.7km/h 26.7% 0in /  0.0mm
17:29 97.2 °F /  36.2 °C 58.5 °F /  14.7 °C 29.9in /  1010.8hPa SO 10mph /  16.1km/h 16.3mph /  26.2km/h 27.9% 0in /  0.0mm
17:34 96.6 °F /  35.9 °C 58.5 °F /  14.7 °C 29.9in /  1010.8hPa SO 8.5mph /  13.7km/h 16mph /  25.7km/h 28.3% 0in /  0.0mm
17:39 96.6 °F /  35.9 °C 58.6 °F /  14.8 °C 29.8in /  1010.1hPa Oeste 7.4mph /  11.9km/h 12mph /  19.3km/h 28.4% 0in /  0.0mm
17:44 96.8 °F /  36 °C 58.5 °F /  14.7 °C 29.8in /  1010.1hPa OSO 5.2mph /  8.4km/h 9mph /  14.5km/h 28.1% 0in /  0.0mm
17:49 97.2 °F /  36.2 °C 58.3 °F /  14.6 °C 29.8in /  1010.1hPa OSO 4.3mph /  7km/h 6.9mph /  11.1km/h 27.8% 0in /  0.0mm
17:54 97.3 °F /  36.3 °C 58.5 °F /  14.7 °C 29.8in /  1009.5hPa Sur 2.4mph /  3.9km/h 7mph /  11.3km/h 27.7% 0in /  0.0mm
17:59 97.3 °F /  36.3 °C 58.5 °F /  14.7 °C 29.8in /  1009.5hPa SSE 2.5mph /  4.1km/h 5.2mph /  8.4km/h 27.7% 0in /  0.0mm
18:04 97.3 °F /  36.3 °C 58.5 °F /  14.7 °C 29.8in /  1009.5hPa SSE 2.9mph /  4.6km/h 5mph /  8km/h 27.6% 0in /  0.0mm
18:09 97.3 °F /  36.3 °C 58.1 °F /  14.5 °C 29.8in /  1009.2hPa SSE 2.6mph /  4.2km/h 5.2mph /  8.4km/h 27.2% 0in /  0.0mm
18:14 97.3 °F /  36.3 °C 58.6 °F /  14.8 °C 29.8in /  1009.2hPa ENE 2mph /  3.2km/h 5.8mph /  9.3km/h 27.8% 0in /  0.0mm
18:19 97.2 °F /  36.2 °C 58.6 °F /  14.8 °C 29.8in /  1009.2hPa ENE 2.1mph /  3.4km/h 6mph /  9.7km/h 28% 0in /  0.0mm
18:24 97.2 °F /  36.2 °C 58.8 °F /  14.9 °C 29.8in /  1009.2hPa ENE 2.4mph /  3.9km/h 6.9mph /  11.1km/h 28.2% 0in /  0.0mm
18:29 96.8 °F /  36 °C 59.2 °F /  15.1 °C 29.8in /  1009.2hPa NE 3mph /  4.8km/h 7mph /  11.3km/h 29% 0in /  0.0mm
18:34 96.4 °F /  35.8 °C 59.9 °F /  15.5 °C 29.8in /  1009.2hPa NE 4.3mph /  6.9km/h 7mph /  11.3km/h 29.9% 0in /  0.0mm
18:39 96.3 °F /  35.7 °C 59.9 °F /  15.5 °C 29.8in /  1009.1hPa NE 4.2mph /  6.8km/h 7mph /  11.3km/h 30.1% 0in /  0.0mm
18:44 96.3 °F /  35.7 °C 60.6 °F /  15.9 °C 29.8in /  1009.1hPa NE 4mph /  6.5km/h 7.6mph /  12.2km/h 31% 0in /  0.0mm
18:49 95.5 °F /  35.3 °C 60.3 °F /  15.7 °C 29.8in /  1009.1hPa NE 4.2mph /  6.8km/h 8.5mph /  13.7km/h 31% 0in /  0.0mm
18:54 95.2 °F /  35.1 °C 59.9 °F /  15.5 °C 29.8in /  1008.9hPa NNE 4.7mph /  7.6km/h 9.2mph /  14.8km/h 31% 0in /  0.0mm
18:59 94.8 °F /  34.9 °C 59.7 °F /  15.4 °C 29.8in /  1008.9hPa NNE 5.2mph /  8.4km/h 9.2mph /  14.8km/h 31.2% 0in /  0.0mm
19:04 94.8 °F /  34.9 °C 59.5 °F /  15.3 °C 29.8in /  1008.9hPa NE 6.2mph /  10km/h 9.7mph /  15.6km/h 31% 0in /  0.0mm
19:09 94.8 °F /  34.9 °C 59.7 °F /  15.4 °C 29.8in /  1008.9hPa NNE 6mph /  9.6km/h 10mph /  16.1km/h 31.3% 0in /  0.0mm
19:14 94.8 °F /  34.9 °C 59.9 °F /  15.5 °C 29.8in /  1008.9hPa NE 5.4mph /  8.7km/h 10.4mph /  16.7km/h 31.4% 0in /  0.0mm
19:19 94.6 °F /  34.8 °C 61.7 °F /  16.5 °C 29.8in /  1008.9hPa NE 5.8mph /  9.4km/h 15.2mph /  24.5km/h 33.7% 0in /  0.0mm
19:24 94.1 °F /  34.5 °C 66.4 °F /  19.1 °C 29.8in /  1008.4hPa NNE 6.9mph /  11.1km/h 15mph /  24.1km/h 40.5% 0in /  0.0mm
19:29 93.2 °F /  34 °C 68 °F /  20 °C 29.8in /  1008.4hPa NE 7.4mph /  11.9km/h 15mph /  24.1km/h 44% 0in /  0.0mm
19:34 92.5 °F /  33.6 °C 69.1 °F /  20.6 °C 29.8in /  1008.4hPa NE 8.5mph /  13.7km/h 16.3mph /  26.2km/h 46.7% 0in /  0.0mm
19:39 91.8 °F /  33.2 °C 69.8 °F /  21 °C 29.8in /  1008.1hPa NE 8.9mph /  14.4km/h 18.1mph /  29.1km/h 49% 0in /  0.0mm
19:44 91 °F /  32.8 °C 69.8 °F /  21 °C 29.8in /  1008.1hPa NE 10mph /  16.1km/h 18.4mph /  29.6km/h 49.9% 0in /  0.0mm
19:49 90.9 °F /  32.7 °C 69.6 °F /  20.9 °C 29.8in /  1008.4hPa NNE 10.1mph /  16.2km/h 18.4mph /  29.6km/h 50% 0in /  0.0mm
19:54 90.1 °F /  32.3 °C 69.6 °F /  20.9 °C 29.8in /  1008.4hPa NE 10.2mph /  16.4km/h 18.4mph /  29.6km/h 51% 0in /  0.0mm
19:59 89.4 °F /  31.9 °C 69.6 °F /  20.9 °C 29.8in /  1008.4hPa NNE 11mph /  17.7km/h 21.5mph /  34.6km/h 52.3% 0in /  0.0mm
20:04 89.2 °F /  31.8 °C 70 °F /  21.1 °C 29.8in /  1008.4hPa NNE 12.5mph /  20.1km/h 22mph /  35.4km/h 53.3% 0in /  0.0mm
20:09 88.7 °F /  31.5 °C 70.5 °F /  21.4 °C 29.8in /  1008.0hPa NNE 12.4mph /  20km/h 21mph /  33.8km/h 55.2% 0in /  0.0mm
20:14 88.2 °F /  31.2 °C 70.7 °F /  21.5 °C 29.8in /  1008.0hPa NNE 12.3mph /  19.8km/h 19mph /  30.6km/h 56.4% 0in /  0.0mm
20:19 87.8 °F /  31 °C 70.7 °F /  21.5 °C 29.8in /  1008.4hPa NNE 11.7mph /  18.8km/h 19mph /  30.6km/h 57% 0in /  0.0mm
20:24 87.4 °F /  30.8 °C 70.5 °F /  21.4 °C 29.8in /  1008.4hPa NNE 10.2mph /  16.4km/h 19mph /  30.6km/h 57.3% 0in /  0.0mm
20:29 87.1 °F /  30.6 °C 70.5 °F /  21.4 °C 29.8in /  1008.4hPa NNE 10.9mph /  17.5km/h 18mph /  29km/h 58% 0in /  0.0mm
20:34 86.7 °F /  30.4 °C 70.2 °F /  21.2 °C 29.8in /  1008.6hPa NNE 12.5mph /  20.1km/h 18mph /  29km/h 58% 0in /  0.0mm
20:39 86.5 °F /  30.3 °C 70 °F /  21.1 °C 29.8in /  1008.6hPa NE 11.8mph /  19km/h 17.3mph /  27.8km/h 58% 0in /  0.0mm
20:44 86.4 °F /  30.2 °C 69.8 °F /  21 °C 29.8in /  1008.6hPa NE 10.2mph /  16.4km/h 17mph /  27.4km/h 58% 0in /  0.0mm
20:49 86.4 °F /  30.2 °C 69.8 °F /  21 °C 29.8in /  1008.8hPa NE 9.8mph /  15.7km/h 15mph /  24.1km/h 58% 0in /  0.0mm
20:54 86.4 °F /  30.2 °C 70.3 °F /  21.3 °C 29.8in /  1008.8hPa NE 8.7mph /  14km/h 15mph /  24.1km/h 58.9% 0in /  0.0mm
20:59 86.4 °F /  30.2 °C 70.3 °F /  21.3 °C 29.8in /  1008.8hPa NE 8.7mph /  14km/h 16.8mph /  27km/h 59% 0in /  0.0mm
21:04 86.4 °F /  30.2 °C 70 °F /  21.1 °C 29.8in /  1009.4hPa NE 8.7mph /  14km/h 18.5mph /  29.8km/h 58.3% 0in /  0.0mm
21:09 86.4 °F /  30.2 °C 69.6 °F /  20.9 °C 29.8in /  1009.4hPa Este 9.1mph /  14.7km/h 19mph /  30.6km/h 57.5% 0in /  0.0mm
21:14 86 °F /  30 °C 70.3 °F /  21.3 °C 29.8in /  1009.4hPa ESE 10.2mph /  16.4km/h 21.9mph /  35.2km/h 59.9% 0in /  0.0mm
21:19 85.3 °F /  29.6 °C 70.7 °F /  21.5 °C 29.8in /  1009.4hPa Este 10.4mph /  16.7km/h 22mph /  35.4km/h 61.5% 0in /  0.0mm
21:24 85.1 °F /  29.5 °C 70.5 °F /  21.4 °C 29.8in /  1009.4hPa ESE 10.7mph /  17.2km/h 18.4mph /  29.6km/h 62% 0in /  0.0mm
21:29 85.1 °F /  29.5 °C 70.2 °F /  21.2 °C 29.8in /  1009.4hPa SE 10.1mph /  16.3km/h 18mph /  29km/h 61.1% 0in /  0.0mm
21:34 85.5 °F /  29.7 °C 69.6 °F /  20.9 °C 29.8in /  1010.2hPa SSE 8.7mph /  14km/h 13.7mph /  22km/h 59.2% 0in /  0.0mm
21:39 86.2 °F /  30.1 °C 69.1 °F /  20.6 °C 29.8in /  1010.2hPa SSE 8.3mph /  13.4km/h 14mph /  22.5km/h 56.7% 0in /  0.0mm
21:44 87.1 °F /  30.6 °C 69.1 °F /  20.6 °C 29.8in /  1010.2hPa Sur 7.6mph /  12.2km/h 14mph /  22.5km/h 55.4% 0in /  0.0mm
21:49 87.4 °F /  30.8 °C 70 °F /  21.1 °C 29.9in /  1010.8hPa SSO 7.5mph /  12.1km/h 17.3mph /  27.8km/h 56.5% 0in /  0.0mm
21:54 86.7 °F /  30.4 °C 70.7 °F /  21.5 °C 29.9in /  1010.8hPa SO 7.4mph /  11.9km/h 18.5mph /  29.8km/h 59% 0in /  0.0mm
21:59 85.6 °F /  29.8 °C 70.2 °F /  21.2 °C 29.9in /  1010.8hPa SSO 9.3mph /  15km/h 24.2mph /  38.9km/h 60% 0in /  0.0mm
22:04 85.1 °F /  29.5 °C 69.8 °F /  21 °C 29.9in /  1011.6hPa SSE 13mph /  20.9km/h 24mph /  38.6km/h 60% 0in /  0.0mm
22:09 84.7 °F /  29.3 °C 69.6 °F /  20.9 °C 29.9in /  1011.6hPa SE 12.5mph /  20.1km/h 22mph /  35.4km/h 60.6% 0in /  0.0mm
22:14 84.6 °F /  29.2 °C 69.8 °F /  21 °C 29.9in /  1011.6hPa SE 11.4mph /  18.4km/h 15mph /  24.1km/h 61.6% 0in /  0.0mm
22:19 84.2 °F /  29 °C 70 °F /  21.1 °C 29.9in /  1011.6hPa Sur 9.5mph /  15.3km/h 14mph /  22.5km/h 62.2% 0in /  0.0mm
22:24 83.8 °F /  28.8 °C 70.2 °F /  21.2 °C 29.9in /  1011.6hPa OSO 5.4mph /  8.7km/h 8.5mph /  13.7km/h 63.3% 0in /  0.0mm
22:29 83.7 °F /  28.7 °C 70.3 °F /  21.3 °C 29.9in /  1011.6hPa Oeste 5mph /  8km/h 9mph /  14.5km/h 64% 0in /  0.0mm
22:34 83.7 °F /  28.7 °C 70.2 °F /  21.2 °C 29.9in /  1012.4hPa Oeste 4mph /  6.5km/h 11.2mph /  18km/h 64% 0in /  0.0mm
22:39 83.7 °F /  28.7 °C 69.8 °F /  21 °C 29.9in /  1012.4hPa SSO 4.7mph /  7.6km/h 16.1mph /  25.9km/h 63.4% 0in /  0.0mm
22:44 83.3 °F /  28.5 °C 68.9 °F /  20.5 °C 29.9in /  1012.4hPa SSO 6.2mph /  10km/h 20.7mph /  33.3km/h 62.1% 0in /  0.0mm
22:49 83.3 °F /  28.5 °C 67.8 °F /  19.9 °C 29.9in /  1012.7hPa SSO 8mph /  12.9km/h 21mph /  33.8km/h 59.5% 0in /  0.0mm
22:54 83.5 °F /  28.6 °C 67.5 °F /  19.7 °C 29.9in /  1012.7hPa SSO 11.8mph /  19km/h 21mph /  33.8km/h 58.8% 0in /  0.0mm
22:59 83.7 °F /  28.7 °C 66.9 °F /  19.4 °C 29.9in /  1012.7hPa SSO 12mph /  19.3km/h 20.7mph /  33.3km/h 57.2% 0in /  0.0mm
23:04 83.8 °F /  28.8 °C 66.6 °F /  19.2 °C 29.9in /  1013.3hPa Sur 12.3mph /  19.8km/h 21mph /  33.8km/h 56.1% 0in /  0.0mm
23:09 83.8 °F /  28.8 °C 67.5 °F /  19.7 °C 29.9in /  1013.3hPa SSE 12.1mph /  19.4km/h 20mph /  32.2km/h 57.9% 0in /  0.0mm
23:14 83.1 °F /  28.4 °C 67.8 °F /  19.9 °C 29.9in /  1013.3hPa SSE 11.4mph /  18.4km/h 19.7mph /  31.7km/h 59.9% 0in /  0.0mm
23:19 82.9 °F /  28.3 °C 68 °F /  20 °C 29.9in /  1013.3hPa SSE 11.1mph /  17.8km/h 20mph /  32.2km/h 61% 0in /  0.0mm
23:24 82.9 °F /  28.3 °C 67.8 °F /  19.9 °C 29.9in /  1013.0hPa SE 10.2mph /  16.4km/h 15mph /  24.1km/h 60.6% 0in /  0.0mm
23:29 82.9 °F /  28.3 °C 67.5 °F /  19.7 °C 29.9in /  1013.0hPa SSE 9.1mph /  14.6km/h 15mph /  24.1km/h 59.6% 0in /  0.0mm
23:34 82.9 °F /  28.3 °C 67.1 °F /  19.5 °C 29.9in /  1013.0hPa SO 6.4mph /  10.3km/h 13mph /  20.9km/h 59% 0in /  0.0mm
23:39 83.1 °F /  28.4 °C 67.3 °F /  19.6 °C 29.9in /  1012.7hPa ENE 5.7mph /  9.1km/h 9mph /  14.5km/h 58.9% 0in /  0.0mm
23:44 83.1 °F /  28.4 °C 67.3 °F /  19.6 °C 29.9in /  1012.7hPa NE 4mph /  6.5km/h 8.1mph /  13km/h 59% 0in /  0.0mm
23:49 83.1 °F /  28.4 °C 67.3 °F /  19.6 °C 29.9in /  1012.7hPa ENE 4.1mph /  6.6km/h 9.7mph /  15.6km/h 59.1% 0in /  0.0mm
23:54 82.9 °F /  28.3 °C 67.8 °F /  19.9 °C 29.9in /  1012.0hPa NE 4.3mph /  6.9km/h 10mph /  16.1km/h 60.4% 0in /  0.0mm
23:59 82.8 °F /  28.2 °C 67.8 °F /  19.9 °C 29.9in /  1012.0hPa NE 5mph /  8km/h 10.4mph /  16.7km/h 60.8% 0in /  0.0mm
Murcia-Puente Tocinos, España
Compliments of Weather Underground - 3 mb

La estación de MeteoMurcia.com, publica sus datos en los siguientes proyectos:

Weather Underground PWS IMURCIAP2 Meteoclimatic www.awekas.at

W3Counter
Web Analytics